Terminal Aerodrome Forecast
Issued by NWS Blacksburg, VA

Current Version | Previous Version | Text Only | Print | Product List | Glossary Off
Versions: 1 2 3 4 5 6 7 8 9 10 11 12 13 14 15 16 17 18 19 20 21 22 23 24 25 26 27 28 29 30 31 32 33 34 35 36 37 38 39 40 41 42 43 44 45 46 47 48 49 50

095
FTUS41 KRNK 051136
TAFBLF
TAF
KBLF 051136Z 0512/0612 30007KT P6SM SCT008 OVC028
      TEMPO 0512/0514 BKN008
     FM051700 30009G18KT 6SM -SHRA OVC015
     FM052200 31008KT 5SM -SHRA BR OVC004
     FM060000 30008KT 3SM SHRA BR SCT004 OVC012
     FM060300 30007KT 4SM -SHRA BR OVC003
     FM060600 31007KT 2SM BR OVC004=

USA.gov is the U.S. government's official web portal to all federal, state and local government web resources and services.